createdAt,value
2022-10-13T00:00:28.746Z,69.64
2022-10-13T00:01:28.801Z,69.92
2022-10-13T00:02:28.706Z,71.22
2022-10-13T00:03:28.690Z,68.25
2022-10-13T00:04:28.672Z,71.00
2022-10-13T00:05:28.654Z,71.59
2022-10-13T00:06:28.662Z,71.86
2022-10-13T00:07:28.617Z,71.00
2022-10-13T00:08:28.602Z,70.51
2022-10-13T00:09:28.581Z,67.88
2022-10-13T00:10:28.564Z,70.85
2022-10-13T00:11:28.577Z,70.25
2022-10-13T00:12:28.531Z,72.27
2022-10-13T00:13:28.511Z,72.21
2022-10-13T00:14:28.490Z,71.22
2022-10-13T00:15:28.472Z,71.59
2022-10-13T00:16:28.484Z,70.27
2022-10-13T00:17:28.435Z,71.87
2022-10-13T00:18:28.419Z,71.60
2022-10-13T00:19:28.399Z,68.33
2022-10-13T00:20:28.384Z,72.57
2022-10-13T00:21:28.390Z,69.86
2022-10-13T00:22:28.350Z,71.65
2022-10-13T00:23:28.327Z,70.66
2022-10-13T00:24:28.312Z,70.56
2022-10-13T00:25:28.294Z,70.76
2022-10-13T00:26:28.303Z,66.92
2022-10-13T00:27:28.261Z,68.83
2022-10-13T00:28:28.249Z,71.40
2022-10-13T00:29:28.226Z,68.62
2022-10-13T00:30:28.211Z,71.86
2022-10-13T00:31:28.212Z,69.12
2022-10-13T00:32:28.169Z,67.87
2022-10-13T00:33:28.153Z,71.55
2022-10-13T00:34:28.137Z,71.70
2022-10-13T00:35:28.114Z,71.65
2022-10-13T00:36:28.123Z,71.38
2022-10-13T00:37:28.077Z,71.40
2022-10-13T00:38:28.060Z,68.98
2022-10-13T00:39:28.041Z,68.82
2022-10-13T00:40:28.024Z,68.79
2022-10-13T00:41:28.030Z,71.03
2022-10-13T00:42:27.989Z,69.84
2022-10-13T00:43:27.969Z,68.72
2022-10-13T00:44:27.950Z,71.06
2022-10-13T00:45:27.940Z,70.08
2022-10-13T00:46:27.943Z,69.88
2022-10-13T00:47:27.903Z,69.31
2022-10-13T00:48:27.885Z,71.44
2022-10-13T00:49:27.867Z,69.01
2022-10-13T00:50:27.870Z,70.19
2022-10-13T00:51:27.861Z,69.17
2022-10-13T00:52:27.817Z,69.13
2022-10-13T00:53:27.797Z,70.77
2022-10-13T00:54:27.780Z,70.06
2022-10-13T00:55:27.761Z,66.70
2022-10-13T00:56:27.779Z,71.89
2022-10-13T00:57:27.727Z,67.02
2022-10-13T00:58:27.711Z,69.36
2022-10-13T00:59:27.692Z,68.12
2022-10-13T01:00:27.730Z,67.50
2022-10-13T01:01:27.679Z,69.44
2022-10-13T01:02:27.632Z,71.11
2022-10-13T01:03:27.613Z,71.75
2022-10-13T01:04:27.596Z,69.90
2022-10-13T01:05:27.574Z,69.35
2022-10-13T01:06:27.593Z,69.01
2022-10-13T01:07:27.544Z,70.05
2022-10-13T01:08:27.530Z,71.01
2022-10-13T01:09:27.511Z,69.76
2022-10-13T01:10:27.495Z,70.19
2022-10-13T01:11:27.508Z,68.67
2022-10-13T01:12:27.464Z,69.07
2022-10-13T01:13:27.442Z,71.00
2022-10-13T01:14:27.425Z,72.66
2022-10-13T01:15:27.409Z,71.67
2022-10-13T01:16:27.418Z,70.77
2022-10-13T01:17:27.376Z,72.45
2022-10-13T01:18:27.355Z,71.17
2022-10-13T01:19:27.340Z,71.51
2022-10-13T01:20:27.323Z,71.74
2022-10-13T01:21:27.332Z,70.14
2022-10-13T01:22:27.283Z,72.20
2022-10-13T01:23:27.268Z,72.91
2022-10-13T01:24:27.247Z,71.36
2022-10-13T01:25:27.231Z,72.72
2022-10-13T01:26:27.243Z,74.47
2022-10-13T01:27:27.205Z,71.24
2022-10-13T01:28:27.230Z,70.54
2022-10-13T01:29:27.162Z,71.75
2022-10-13T01:30:27.144Z,69.68
2022-10-13T01:31:27.160Z,73.89
2022-10-13T01:32:27.111Z,70.06
2022-10-13T01:33:27.100Z,69.17
2022-10-13T01:34:27.080Z,70.94
2022-10-13T01:35:27.058Z,70.85
2022-10-13T01:36:27.071Z,69.91
2022-10-13T01:37:27.025Z,70.44
2022-10-13T01:38:27.013Z,73.06
2022-10-13T01:39:26.989Z,69.28
2022-10-13T01:40:26.975Z,69.95
2022-10-13T01:41:26.985Z,72.19
2022-10-13T01:42:26.945Z,70.29
2022-10-13T01:43:26.922Z,68.55
2022-10-13T01:44:26.905Z,74.57
2022-10-13T01:45:26.890Z,73.20
2022-10-13T01:46:26.898Z,72.87
2022-10-13T01:47:26.853Z,71.80
2022-10-13T01:48:26.839Z,70.75
2022-10-13T01:49:26.819Z,73.13
2022-10-13T01:50:26.802Z,73.52
2022-10-13T01:51:26.813Z,70.35
2022-10-13T01:52:26.768Z,71.00
2022-10-13T01:53:26.748Z,72.51
2022-10-13T01:54:26.731Z,70.41
2022-10-13T01:55:26.723Z,71.46
2022-10-13T01:56:26.724Z,72.47
2022-10-13T01:57:26.686Z,72.29
2022-10-13T01:58:26.668Z,73.69
2022-10-13T01:59:26.653Z,71.25
2022-10-13T02:00:26.668Z,71.08
2022-10-13T02:01:26.641Z,73.22
2022-10-13T02:02:26.596Z,73.96
2022-10-13T02:03:26.580Z,72.86
2022-10-13T02:04:26.564Z,73.13
2022-10-13T02:05:26.542Z,70.25
2022-10-13T02:06:26.558Z,73.17
2022-10-13T02:07:26.508Z,74.78
2022-10-13T02:08:26.491Z,73.35
2022-10-13T02:09:26.478Z,71.42
2022-10-13T02:10:26.463Z,69.51
2022-10-13T02:11:26.472Z,74.09
2022-10-13T02:12:26.427Z,73.97
2022-10-13T02:13:26.405Z,72.77
2022-10-13T02:14:26.405Z,70.29
2022-10-13T02:15:26.370Z,74.06
2022-10-13T02:16:26.384Z,73.32
2022-10-13T02:17:26.342Z,72.18
2022-10-13T02:18:26.317Z,71.15
2022-10-13T02:19:26.304Z,73.41
2022-10-13T02:20:26.287Z,72.61
2022-10-13T02:21:26.297Z,72.99
2022-10-13T02:22:26.282Z,73.50
2022-10-13T02:23:26.233Z,73.49
2022-10-13T02:24:26.214Z,72.85
2022-10-13T02:25:26.195Z,74.41
2022-10-13T02:26:26.175Z,73.30
2022-10-13T02:27:26.185Z,72.06
2022-10-13T02:28:26.178Z,72.78
2022-10-13T02:29:26.122Z,73.51
2022-10-13T02:30:26.107Z,73.90
2022-10-13T02:31:26.116Z,73.12
2022-10-13T02:32:26.066Z,73.38
2022-10-13T02:33:26.050Z,73.33
2022-10-13T02:34:26.032Z,74.22
2022-10-13T02:35:26.016Z,73.89
2022-10-13T02:36:26.026Z,72.95
2022-10-13T02:37:25.984Z,73.91
2022-10-13T02:38:25.966Z,71.70
2022-10-13T02:39:25.946Z,71.08
2022-10-13T02:40:25.928Z,70.87
2022-10-13T02:41:25.933Z,74.03
2022-10-13T02:42:25.891Z,72.30
2022-10-13T02:43:25.874Z,72.52
2022-10-13T02:44:25.860Z,71.78
2022-10-13T02:45:25.840Z,68.48
2022-10-13T02:46:25.848Z,73.33
2022-10-13T02:47:25.801Z,73.63
2022-10-13T02:48:25.794Z,71.73
2022-10-13T02:49:25.766Z,71.47
2022-10-13T02:50:25.755Z,74.30
2022-10-13T02:51:25.762Z,69.75
2022-10-13T02:52:25.717Z,72.92
2022-10-13T02:53:25.713Z,69.03
2022-10-13T02:54:25.680Z,71.95
2022-10-13T02:55:25.657Z,73.66
2022-10-13T02:56:25.668Z,72.16
2022-10-13T02:57:25.621Z,71.58
2022-10-13T02:58:25.605Z,70.61
2022-10-13T02:59:25.587Z,73.44
2022-10-13T03:00:25.577Z,73.24
2022-10-13T03:01:25.576Z,73.67
2022-10-13T03:02:25.534Z,71.92
2022-10-13T03:03:25.515Z,70.47
2022-10-13T03:04:25.495Z,70.74
2022-10-13T03:05:25.473Z,71.57
2022-10-13T03:06:25.483Z,71.25
2022-10-13T03:07:25.445Z,70.25
2022-10-13T03:08:25.425Z,73.10
2022-10-13T03:09:25.408Z,71.78
2022-10-13T03:10:25.390Z,72.59
2022-10-13T03:11:25.397Z,73.20
2022-10-13T03:12:25.356Z,73.14
2022-10-13T03:13:25.370Z,70.55
2022-10-13T03:14:25.317Z,70.50
2022-10-13T03:15:25.302Z,70.88
2022-10-13T03:16:25.310Z,72.80
2022-10-13T03:17:25.268Z,73.73
2022-10-13T03:18:25.249Z,72.37
2022-10-13T03:19:25.233Z,72.40
2022-10-13T03:20:25.215Z,72.12
2022-10-13T03:21:25.227Z,73.24
2022-10-13T03:22:25.181Z,73.00
2022-10-13T03:23:25.168Z,73.37
2022-10-13T03:24:25.146Z,74.56
2022-10-13T03:25:25.134Z,71.87
2022-10-13T03:26:25.136Z,72.85
2022-10-13T03:27:25.187Z,74.53
2022-10-13T03:28:25.226Z,74.25
2022-10-13T03:29:25.058Z,73.39
2022-10-13T03:30:25.042Z,73.61
2022-10-13T03:31:25.062Z,72.98
2022-10-13T03:32:25.007Z,73.87
2022-10-13T03:33:24.990Z,72.46
2022-10-13T03:34:24.975Z,73.54
2022-10-13T03:35:24.955Z,73.58
2022-10-13T03:36:24.972Z,72.65
2022-10-13T03:37:24.921Z,73.10
2022-10-13T03:38:24.930Z,72.87
2022-10-13T03:39:24.890Z,73.99
2022-10-13T03:40:24.864Z,73.68
2022-10-13T03:41:24.877Z,74.36
2022-10-13T03:42:24.833Z,74.97
2022-10-13T03:43:24.814Z,72.11
2022-10-13T03:44:24.797Z,73.35
2022-10-13T03:45:24.783Z,74.20
2022-10-13T03:46:24.789Z,73.98
2022-10-13T03:47:24.744Z,74.45
2022-10-13T03:48:24.727Z,75.12
2022-10-13T03:49:24.712Z,73.72
2022-10-13T03:50:24.692Z,75.20
2022-10-13T03:51:24.709Z,73.82
2022-10-13T03:52:24.661Z,74.82
2022-10-13T03:53:24.645Z,75.42
2022-10-13T03:54:24.625Z,75.54
2022-10-13T03:55:24.625Z,73.49
2022-10-13T03:56:24.615Z,74.73
2022-10-13T03:57:24.596Z,75.33
2022-10-13T03:58:24.551Z,72.00
2022-10-13T03:59:24.544Z,73.86
2022-10-13T04:00:24.536Z,72.86
2022-10-13T04:01:24.566Z,73.97
2022-10-13T04:02:24.489Z,74.94
2022-10-13T04:03:24.466Z,73.95
2022-10-13T04:04:24.453Z,73.82
2022-10-13T04:05:24.432Z,74.57
2022-10-13T04:06:24.442Z,73.54
2022-10-13T04:07:24.400Z,70.47
2022-10-13T04:08:24.381Z,74.03
2022-10-13T04:09:24.364Z,74.45
2022-10-13T04:10:24.351Z,72.74
2022-10-13T04:11:24.357Z,73.44
2022-10-13T04:12:24.486Z,73.36
2022-10-13T04:13:24.295Z,74.02
2022-10-13T04:14:24.276Z,71.91
2022-10-13T04:15:24.261Z,70.97
2022-10-13T04:16:24.267Z,71.82
2022-10-13T04:17:24.222Z,73.21
2022-10-13T04:18:24.209Z,72.93
2022-10-13T04:19:24.201Z,72.32
2022-10-13T04:20:24.174Z,74.53
2022-10-13T04:21:24.183Z,72.23
2022-10-13T04:22:24.144Z,75.61
2022-10-13T04:23:24.155Z,72.54
2022-10-13T04:24:24.109Z,74.30
2022-10-13T04:25:24.086Z,76.29
2022-10-13T04:26:24.093Z,75.26
2022-10-13T04:27:24.051Z,71.44
2022-10-13T04:28:24.095Z,73.77
2022-10-13T04:29:24.019Z,73.98
2022-10-13T04:30:23.999Z,72.94
2022-10-13T04:31:24.015Z,73.97
2022-10-13T04:32:23.968Z,73.08
2022-10-13T04:33:23.945Z,72.87
2022-10-13T04:34:23.931Z,74.47
2022-10-13T04:35:23.913Z,72.56
2022-10-13T04:36:23.939Z,74.31
2022-10-13T04:37:23.882Z,74.25
2022-10-13T04:38:23.856Z,73.98
2022-10-13T04:39:23.839Z,73.21
2022-10-13T04:40:23.831Z,73.18
2022-10-13T04:41:23.838Z,74.00
2022-10-13T04:42:23.790Z,74.99
2022-10-13T04:43:23.771Z,73.64
2022-10-13T04:44:23.746Z,74.61
2022-10-13T04:45:23.730Z,73.14
2022-10-13T04:46:23.736Z,73.91
2022-10-13T04:47:23.692Z,72.28
2022-10-13T04:48:23.668Z,75.36
2022-10-13T04:49:23.653Z,73.34
2022-10-13T04:50:23.636Z,74.63
2022-10-13T04:51:23.650Z,73.64
2022-10-13T04:52:23.604Z,75.60
2022-10-13T04:53:23.589Z,72.77
2022-10-13T04:54:23.563Z,74.56
2022-10-13T04:55:23.549Z,73.86
2022-10-13T04:56:23.560Z,74.47
2022-10-13T04:57:23.519Z,75.19
2022-10-13T04:58:23.494Z,73.45
2022-10-13T04:59:23.479Z,72.47
2022-10-13T05:00:23.500Z,73.33
2022-10-13T05:01:23.440Z,74.07
2022-10-13T05:02:23.451Z,73.01
2022-10-13T05:03:23.433Z,74.81
2022-10-13T05:04:23.391Z,75.13
2022-10-13T05:05:23.366Z,73.79
2022-10-13T05:06:23.347Z,75.30
2022-10-13T05:07:23.327Z,74.84
2022-10-13T05:08:23.338Z,73.24
2022-10-13T05:09:23.290Z,73.90
2022-10-13T05:10:23.285Z,74.56
2022-10-13T05:11:23.261Z,74.00
2022-10-13T05:12:23.462Z,73.37
2022-10-13T05:13:23.713Z,74.73
2022-10-13T05:14:23.191Z,74.77
2022-10-13T05:15:23.172Z,74.49
2022-10-13T05:16:23.159Z,73.45
2022-10-13T05:17:23.168Z,71.79
2022-10-13T05:18:23.119Z,74.08
2022-10-13T05:19:23.109Z,75.23
2022-10-13T05:20:23.083Z,72.64
2022-10-13T05:21:23.105Z,73.73
2022-10-13T05:22:23.196Z,76.25
2022-10-13T05:23:23.018Z,74.88
2022-10-13T05:24:24.027Z,74.59
2022-10-13T05:25:22.989Z,74.46
2022-10-13T05:26:23.001Z,72.49
2022-10-13T05:27:22.955Z,74.50
2022-10-13T05:28:22.955Z,75.31
2022-10-13T05:29:22.919Z,74.57
2022-10-13T05:30:22.900Z,74.69
2022-10-13T05:31:22.907Z,74.98
2022-10-13T05:32:23.080Z,75.33
2022-10-13T05:33:22.846Z,74.65
2022-10-13T05:34:22.831Z,74.79
2022-10-13T05:35:22.897Z,74.69
2022-10-13T05:36:22.818Z,75.35
2022-10-13T05:37:22.773Z,76.65
2022-10-13T05:38:26.079Z,74.51
2022-10-13T05:39:23.740Z,75.60
2022-10-13T05:40:22.717Z,74.86
2022-10-13T05:41:22.729Z,75.00
2022-10-13T05:42:23.149Z,75.92
2022-10-13T05:43:22.669Z,74.71
2022-10-13T05:44:22.646Z,73.88
2022-10-13T05:45:22.634Z,74.66
2022-10-13T05:46:22.640Z,73.82
2022-10-13T05:47:22.604Z,75.79
2022-10-13T05:48:22.579Z,73.99
2022-10-13T05:49:22.560Z,74.81
2022-10-13T05:50:22.553Z,74.38
2022-10-13T05:51:22.559Z,73.63
2022-10-13T05:52:22.733Z,73.13
2022-10-13T05:53:22.486Z,74.33
2022-10-13T05:54:22.472Z,74.61
2022-10-13T05:55:22.449Z,74.09
2022-10-13T05:56:22.470Z,74.82
2022-10-13T05:57:22.416Z,75.37
2022-10-13T05:58:22.404Z,74.72
2022-10-13T05:59:26.732Z,75.66
2022-10-13T06:00:23.367Z,73.20
2022-10-13T06:01:22.476Z,74.13
2022-10-13T06:02:22.737Z,74.57
2022-10-13T06:03:22.334Z,75.33
2022-10-13T06:04:22.295Z,73.62
2022-10-13T06:05:22.279Z,74.22
2022-10-13T06:06:22.258Z,76.96
2022-10-13T06:07:22.267Z,73.25
2022-10-13T06:08:22.223Z,74.92
2022-10-13T06:09:22.206Z,74.56
2022-10-13T06:10:22.202Z,75.55
2022-10-13T06:11:22.173Z,75.19
2022-10-13T06:12:22.566Z,73.22
2022-10-13T06:13:22.142Z,75.40
2022-10-13T06:14:22.119Z,74.86
2022-10-13T06:15:27.124Z,73.18
2022-10-13T06:16:24.085Z,76.22
2022-10-13T06:17:22.096Z,72.43
2022-10-13T06:18:22.060Z,73.88
2022-10-13T06:19:22.036Z,75.60
2022-10-13T06:20:22.017Z,72.32
2022-10-13T06:21:22.004Z,75.50
2022-10-13T06:22:22.510Z,75.65
2022-10-13T06:23:21.962Z,75.38
2022-10-13T06:24:21.950Z,73.56
2022-10-13T06:25:21.929Z,74.35
2022-10-13T06:26:21.911Z,74.91
2022-10-13T06:27:21.926Z,74.88
2022-10-13T06:28:21.903Z,75.65
2022-10-13T06:29:21.861Z,74.75
2022-10-13T06:30:21.842Z,74.64
2022-10-13T06:31:21.822Z,75.96
2022-10-13T06:32:22.391Z,74.72
2022-10-13T06:33:21.817Z,75.08
2022-10-13T06:34:21.773Z,75.25
2022-10-13T06:35:21.758Z,73.40
2022-10-13T06:36:21.736Z,73.74
2022-10-13T06:37:26.919Z,73.64
2022-10-13T06:38:23.734Z,74.81
2022-10-13T06:39:21.685Z,74.22
2022-10-13T06:40:21.669Z,73.08
2022-10-13T06:41:21.648Z,73.74
2022-10-13T06:42:22.053Z,73.43
2022-10-13T06:43:21.641Z,74.35
2022-10-13T06:44:21.621Z,72.31
2022-10-13T06:45:21.579Z,73.84
2022-10-13T06:46:21.565Z,73.11
2022-10-13T06:47:21.575Z,73.92
2022-10-13T06:48:21.531Z,73.40
2022-10-13T06:49:21.517Z,74.33
2022-10-13T06:50:21.492Z,72.97
2022-10-13T06:51:21.478Z,75.55
2022-10-13T06:52:21.853Z,73.76
2022-10-13T06:53:21.441Z,74.46
2022-10-13T06:54:21.426Z,75.25
2022-10-13T06:55:21.403Z,74.41
2022-10-13T06:56:21.386Z,74.26
2022-10-13T06:57:21.395Z,75.11
2022-10-13T06:58:21.352Z,74.26
2022-10-13T06:59:21.339Z,74.58
2022-10-13T07:00:21.352Z,74.20
2022-10-13T07:01:21.299Z,75.19
2022-10-13T07:02:21.606Z,74.32
2022-10-13T07:03:21.259Z,75.59
2022-10-13T07:04:21.245Z,73.45
2022-10-13T07:05:21.229Z,76.05
2022-10-13T07:06:21.207Z,75.03
2022-10-13T07:07:21.213Z,74.14
2022-10-13T07:08:21.166Z,73.81
2022-10-13T07:09:21.146Z,73.08
2022-10-13T07:10:21.129Z,74.43
2022-10-13T07:11:21.111Z,74.60
2022-10-13T07:12:21.537Z,74.79
2022-10-13T07:14:21.060Z,74.59
2022-10-13T07:15:21.035Z,75.17
2022-10-13T07:16:21.019Z,74.52
2022-10-13T07:17:21.300Z,74.19
2022-10-13T07:18:20.981Z,74.36
2022-10-13T07:19:20.963Z,73.93
2022-10-13T07:20:20.956Z,74.12
2022-10-13T07:21:20.930Z,73.83
2022-10-13T07:22:20.946Z,74.23
2022-10-13T07:23:20.889Z,73.38
2022-10-13T07:24:20.866Z,73.79
2022-10-13T07:25:20.941Z,74.48
2022-10-13T07:26:20.837Z,74.71
2022-10-13T07:27:21.113Z,73.83
2022-10-13T07:28:20.820Z,74.02
2022-10-13T07:29:20.775Z,73.05
2022-10-13T07:30:20.760Z,75.57
2022-10-13T07:31:20.737Z,75.64
2022-10-13T07:32:20.744Z,74.75
2022-10-13T07:33:20.697Z,72.29
2022-10-13T07:34:20.680Z,74.46
2022-10-13T07:35:20.660Z,72.90
2022-10-13T07:36:20.644Z,73.40
2022-10-13T07:37:21.069Z,74.16
2022-10-13T07:38:20.606Z,74.12
2022-10-13T07:39:20.587Z,73.84
2022-10-13T07:40:20.570Z,73.30
2022-10-13T07:41:20.552Z,75.30
2022-10-13T07:42:20.557Z,74.23
2022-10-13T07:43:20.514Z,73.37
2022-10-13T07:44:20.494Z,74.77
2022-10-13T07:45:20.479Z,74.50
2022-10-13T07:46:20.459Z,73.20
2022-10-13T07:47:20.874Z,74.93
2022-10-13T07:48:20.418Z,73.92
2022-10-13T07:49:20.402Z,74.22
2022-10-13T07:50:20.471Z,72.95
2022-10-13T07:51:20.366Z,74.56
2022-10-13T07:52:20.673Z,74.15
2022-10-13T07:53:20.331Z,72.19
2022-10-13T07:54:23.756Z,74.43
2022-10-13T07:55:22.292Z,75.52
2022-10-13T07:56:20.274Z,73.12
2022-10-13T07:57:20.259Z,74.90
2022-10-13T07:58:20.244Z,73.81
2022-10-13T07:59:20.244Z,73.72
2022-10-13T08:00:20.269Z,73.70
2022-10-13T08:01:20.218Z,74.89
2022-10-13T08:02:20.538Z,71.64
2022-10-13T08:03:20.179Z,74.34
2022-10-13T08:04:20.153Z,73.51
2022-10-13T08:05:20.106Z,72.81
2022-10-13T08:06:20.085Z,73.31
2022-10-13T08:07:20.423Z,74.74
2022-10-13T08:08:20.045Z,73.91
2022-10-13T08:09:20.055Z,75.64
2022-10-13T08:10:20.090Z,73.93
2022-10-13T08:11:20.019Z,73.70
2022-10-13T08:12:20.288Z,72.59
2022-10-13T08:13:19.950Z,75.29
2022-10-13T08:14:19.934Z,74.76
2022-10-13T08:15:19.914Z,73.68
2022-10-13T08:16:19.915Z,73.57
2022-10-13T08:17:20.132Z,72.75
2022-10-13T08:18:19.848Z,74.41
2022-10-13T08:19:19.827Z,73.24
2022-10-13T08:20:19.805Z,72.31
2022-10-13T08:22:24.731Z,71.21
2022-10-13T08:23:20.753Z,73.09
2022-10-13T08:24:19.733Z,72.88
2022-10-13T08:25:19.706Z,71.80
2022-10-13T08:26:19.713Z,71.17
2022-10-13T08:27:20.073Z,74.40
2022-10-13T08:28:19.753Z,72.83
2022-10-13T08:29:22.630Z,73.17
2022-10-13T08:30:20.857Z,72.54
2022-10-13T08:31:19.863Z,73.67
2022-10-13T08:32:19.756Z,73.09
2022-10-13T08:33:19.553Z,70.51
2022-10-13T08:34:19.531Z,73.89
2022-10-13T08:35:19.523Z,73.22
2022-10-13T08:36:19.516Z,74.36
2022-10-13T08:37:19.464Z,73.41
2022-10-13T08:38:19.447Z,73.21
2022-10-13T08:39:19.425Z,73.33
2022-10-13T08:40:19.408Z,72.42
2022-10-13T08:41:19.409Z,74.61
2022-10-13T08:42:19.659Z,74.33
2022-10-13T08:43:19.344Z,74.64
2022-10-13T08:45:40.505Z,73.17
2022-10-13T08:46:21.426Z,75.63
2022-10-13T08:47:19.263Z,75.60
2022-10-13T08:48:19.379Z,72.79
2022-10-13T08:49:19.219Z,73.91
2022-10-13T08:50:19.202Z,74.34
2022-10-13T08:51:19.205Z,72.66
2022-10-13T08:52:19.465Z,72.01
2022-10-13T08:53:19.132Z,73.69
2022-10-13T08:54:19.113Z,73.03
2022-10-13T08:55:19.098Z,71.36
2022-10-13T08:56:19.072Z,74.49
2022-10-13T08:57:19.398Z,73.01
2022-10-13T08:58:19.022Z,74.20
2022-10-13T08:59:18.991Z,73.24
2022-10-13T09:00:18.973Z,72.22
2022-10-13T09:01:18.985Z,72.47
2022-10-13T09:02:18.964Z,75.37
2022-10-13T09:03:18.904Z,73.29
2022-10-13T09:04:18.879Z,72.51
2022-10-13T09:05:18.862Z,71.34
2022-10-13T09:06:18.835Z,73.87
2022-10-13T09:07:19.135Z,73.26
2022-10-13T09:08:18.790Z,71.83
2022-10-13T09:09:18.795Z,72.90
2022-10-13T09:10:18.779Z,70.40
2022-10-13T09:11:18.729Z,70.42
2022-10-13T09:12:18.954Z,73.31
2022-10-13T09:13:18.686Z,71.50
2022-10-13T09:14:18.693Z,71.31
2022-10-13T09:15:18.649Z,73.12
2022-10-13T09:16:18.618Z,70.49
2022-10-13T09:17:18.619Z,72.80
2022-10-13T09:18:18.587Z,71.10
2022-10-13T09:19:18.596Z,72.86
2022-10-13T09:20:18.548Z,70.78
2022-10-13T09:21:18.531Z,71.32
2022-10-13T09:22:18.738Z,71.69
2022-10-13T09:23:18.489Z,68.94
2022-10-13T09:24:18.499Z,70.62
2022-10-13T09:25:18.454Z,69.17
2022-10-13T09:26:18.449Z,68.03
2022-10-13T09:27:18.411Z,71.36
2022-10-13T09:28:18.453Z,70.50
2022-10-13T09:29:18.402Z,72.55
2022-10-13T09:30:18.352Z,71.89
2022-10-13T09:31:18.336Z,72.03
2022-10-13T09:32:18.638Z,73.45
2022-10-13T09:33:18.298Z,71.80
2022-10-13T09:34:18.310Z,71.87
2022-10-13T09:35:18.264Z,72.49
2022-10-13T09:36:18.240Z,72.34
2022-10-13T09:37:18.220Z,73.49
2022-10-13T09:38:18.200Z,72.00
2022-10-13T09:39:18.210Z,71.20
2022-10-13T09:40:18.165Z,72.02
2022-10-13T09:41:18.144Z,72.11
2022-10-13T09:42:18.490Z,72.33
2022-10-13T09:43:18.111Z,70.77
2022-10-13T09:44:18.114Z,71.99
2022-10-13T09:45:18.071Z,70.79
2022-10-13T09:46:18.048Z,72.01
2022-10-13T09:47:18.062Z,69.55
2022-10-13T09:48:18.011Z,71.92
2022-10-13T09:49:18.024Z,72.15
2022-10-13T09:50:17.975Z,73.37
2022-10-13T09:51:17.961Z,71.94
2022-10-13T09:52:18.241Z,72.06
2022-10-13T09:53:17.916Z,72.11
2022-10-13T09:54:17.925Z,71.88
2022-10-13T09:55:17.879Z,73.36
2022-10-13T09:56:17.860Z,70.90
2022-10-13T09:57:17.842Z,70.24
2022-10-13T09:58:17.826Z,72.13
2022-10-13T09:59:17.830Z,73.26
2022-10-13T10:00:17.791Z,69.62
2022-10-13T10:01:17.763Z,71.39
2022-10-13T10:02:19.473Z,70.68
2022-10-13T10:03:17.726Z,71.41
2022-10-13T10:04:17.794Z,72.26
2022-10-13T10:05:17.687Z,69.92
2022-10-13T10:06:17.668Z,72.10
2022-10-13T10:07:17.939Z,70.66
2022-10-13T10:08:17.635Z,71.46
2022-10-13T10:09:17.638Z,70.81
2022-10-13T10:10:17.593Z,72.84
2022-10-13T10:11:17.573Z,70.62
2022-10-13T10:12:17.560Z,72.69
2022-10-13T10:13:17.538Z,73.75
2022-10-13T10:14:17.546Z,70.44
2022-10-13T10:15:17.519Z,71.33
2022-10-13T10:16:17.482Z,71.69
2022-10-13T10:17:17.845Z,71.59
2022-10-13T10:18:17.440Z,71.57
2022-10-13T10:19:17.443Z,71.58
2022-10-13T10:20:17.397Z,72.79
2022-10-13T10:21:17.389Z,72.47
2022-10-13T10:22:17.361Z,72.57
2022-10-13T10:23:17.345Z,71.53
2022-10-13T10:24:17.354Z,73.38
2022-10-13T10:25:17.307Z,71.09
2022-10-13T10:26:22.225Z,70.63
2022-10-13T10:28:17.333Z,71.37
2022-10-13T10:29:17.259Z,72.08
2022-10-13T10:30:17.208Z,72.30
2022-10-13T10:31:17.196Z,70.88
2022-10-13T10:32:17.382Z,70.71
2022-10-13T10:33:17.148Z,73.04
2022-10-13T10:34:17.154Z,72.66
2022-10-13T10:35:17.105Z,70.96
2022-10-13T10:36:17.126Z,74.39
2022-10-13T10:37:21.104Z,72.74
2022-10-13T10:38:19.050Z,73.77
2022-10-13T10:39:17.058Z,73.37
2022-10-13T10:40:17.036Z,73.29
2022-10-13T10:41:16.992Z,71.69
2022-10-13T10:42:17.172Z,73.56
2022-10-13T10:43:16.946Z,73.03
2022-10-13T10:44:16.952Z,73.74
2022-10-13T10:45:16.911Z,72.49
2022-10-13T10:46:16.888Z,71.46
2022-10-13T10:47:19.693Z,73.26
2022-10-13T10:48:17.848Z,72.26
2022-10-13T10:49:16.854Z,72.93
2022-10-13T10:50:16.842Z,72.58
2022-10-13T10:51:16.785Z,71.45
2022-10-13T10:52:16.764Z,71.66
2022-10-13T10:53:16.747Z,71.01
2022-10-13T10:54:16.776Z,72.88
2022-10-13T10:55:16.700Z,72.10
2022-10-13T10:56:16.684Z,72.24
2022-10-13T10:57:16.824Z,72.90
2022-10-13T10:58:16.634Z,72.94
2022-10-13T10:59:16.648Z,73.40
2022-10-13T11:00:16.730Z,71.15
2022-10-13T11:01:16.605Z,72.46
2022-10-13T11:02:16.578Z,72.34
2022-10-13T11:03:16.529Z,71.53
2022-10-13T11:04:16.534Z,71.99
2022-10-13T11:05:16.482Z,71.42
2022-10-13T11:06:16.464Z,71.32
2022-10-13T11:07:16.441Z,71.49
2022-10-13T11:08:16.419Z,72.28
2022-10-13T11:09:17.428Z,72.20
2022-10-13T11:10:16.380Z,72.52
2022-10-13T11:11:16.355Z,72.17
2022-10-13T11:12:16.340Z,72.11
2022-10-13T11:13:16.312Z,73.33
2022-10-13T11:14:16.321Z,72.95
2022-10-13T11:15:16.315Z,71.86
2022-10-13T11:16:16.250Z,71.90
2022-10-13T11:17:16.227Z,72.27
2022-10-13T11:18:19.778Z,72.38
2022-10-13T11:19:18.212Z,71.72
2022-10-13T11:20:16.164Z,73.06
2022-10-13T11:21:16.142Z,70.52
2022-10-13T11:22:16.123Z,72.89
2022-10-13T11:23:16.104Z,73.31
2022-10-13T11:24:16.107Z,73.58
2022-10-13T11:25:16.058Z,71.75
2022-10-13T11:26:16.044Z,72.40
2022-10-13T11:27:16.020Z,72.49
2022-10-13T11:28:16.055Z,73.43
2022-10-13T11:29:16.006Z,71.96
2022-10-13T11:30:15.978Z,72.50
2022-10-13T11:31:15.938Z,72.84
2022-10-13T11:32:15.915Z,72.24
2022-10-13T11:33:15.890Z,71.59
2022-10-13T11:34:15.904Z,72.44
2022-10-13T11:35:15.854Z,71.88
2022-10-13T11:36:15.827Z,72.01
2022-10-13T11:37:15.807Z,72.10
2022-10-13T11:38:17.977Z,72.50
2022-10-13T11:39:16.847Z,72.82
2022-10-13T11:40:15.744Z,69.91
2022-10-13T11:41:15.722Z,72.02
2022-10-13T11:42:15.752Z,73.70
2022-10-13T11:43:15.684Z,72.39
2022-10-13T11:44:15.742Z,72.59
2022-10-13T11:45:15.645Z,71.47
2022-10-13T11:46:15.621Z,72.59
2022-10-13T11:47:15.604Z,70.37
2022-10-13T11:48:15.596Z,72.18
2022-10-13T11:49:15.587Z,72.41
2022-10-13T11:50:15.541Z,71.54
2022-10-13T11:51:16.524Z,73.04
2022-10-13T11:52:16.501Z,72.03
2022-10-13T11:53:15.482Z,71.90
2022-10-13T11:54:15.498Z,71.66
2022-10-13T11:55:15.439Z,72.11
2022-10-13T11:56:15.414Z,72.27
2022-10-13T11:57:15.393Z,70.21
2022-10-13T11:58:15.382Z,72.41
2022-10-13T11:59:15.388Z,72.14
2022-10-13T12:00:15.329Z,74.06
2022-10-13T12:01:15.310Z,72.56
2022-10-13T12:02:18.731Z,70.77
2022-10-13T12:03:16.324Z,72.55
2022-10-13T12:04:15.278Z,72.97
2022-10-13T12:05:15.236Z,70.89
2022-10-13T12:06:15.210Z,71.84
2022-10-13T12:07:15.185Z,71.18
2022-10-13T12:08:15.165Z,72.52
2022-10-13T12:09:15.172Z,73.50
2022-10-13T12:10:15.122Z,73.42
2022-10-13T12:11:15.099Z,74.15
2022-10-13T12:12:15.082Z,71.51
2022-10-13T12:13:15.059Z,71.45
2022-10-13T12:14:15.064Z,70.55
2022-10-13T12:15:15.014Z,72.24
2022-10-13T12:16:14.991Z,70.05
2022-10-13T12:17:19.683Z,71.73
2022-10-13T12:18:15.956Z,72.70
2022-10-13T12:19:14.935Z,71.82
2022-10-13T12:20:14.944Z,72.46
2022-10-13T12:21:14.896Z,72.12
2022-10-13T12:22:14.870Z,70.84
2022-10-13T12:23:14.848Z,70.76
2022-10-13T12:24:14.853Z,70.41
2022-10-13T12:25:14.805Z,70.95
2022-10-13T12:26:14.790Z,70.85
2022-10-13T12:27:14.774Z,70.44
2022-10-13T12:28:14.764Z,72.01
2022-10-13T12:29:14.722Z,72.66
2022-10-13T12:30:14.752Z,73.17
2022-10-13T12:31:14.677Z,71.33
2022-10-13T12:32:14.653Z,71.12
2022-10-13T12:33:14.635Z,71.74
2022-10-13T12:34:14.641Z,71.79
2022-10-13T12:35:14.627Z,73.26
2022-10-13T12:36:14.573Z,72.15
2022-10-13T12:37:14.550Z,71.34
2022-10-13T12:38:14.527Z,71.76
2022-10-13T12:39:14.535Z,71.53
2022-10-13T12:40:14.486Z,71.28
2022-10-13T12:41:14.468Z,71.13
2022-10-13T12:42:14.447Z,72.65
2022-10-13T12:43:14.423Z,71.59
2022-10-13T12:44:14.433Z,71.71
2022-10-13T12:45:15.381Z,70.93
2022-10-13T12:46:14.361Z,71.82
2022-10-13T12:47:14.338Z,72.10
2022-10-13T12:48:14.320Z,72.19
2022-10-13T12:49:14.355Z,71.62
2022-10-13T12:50:14.275Z,72.28
2022-10-13T12:51:14.255Z,72.42
2022-10-13T12:52:14.231Z,72.60
2022-10-13T12:53:14.216Z,72.05
2022-10-13T12:54:14.214Z,72.80
2022-10-13T12:55:14.190Z,72.37
2022-10-13T12:56:14.155Z,71.40